Terminal Aerodrome Forecast
Issued by NWS Portland, ME

Home | Current Version | Previous Version | Text Only | Print | Product List | Glossary On
Versions: 1 2 3 4 5 6 7 8 9 10 11 12 13 14 15 16 17
090
FTUS41 KGYX 131130
TAFPWM
TAF
KPWM 131130Z 1312/1412 32006KT P6SM SCT060 BKN100
      TEMPO 1313/1317 32015G25KT 1/2SM SHSN BKN012 OVC020
     FM131700 31019G32KT P6SM SCT050 BKN090
     FM140000 32015G25KT P6SM SCT060 BKN100=

USA.gov is the U.S. government's official web portal to all federal, state and local government web resources and services.